Tonawanda, New York
Current Conditions -  °F | °C
As of 6:53 PM on Saturday 22 Nov 2014 (Local Time) from KIAG Reporting Station
Overcast Overcast  
Wind Chill: 39°   Ceiling: 1700
Heat Index: 46°   Visibility: 10mi
Dew Point: 40°   Wind: 18mph
Humidity: 79%   Direction: 230°SW
Pressure: 29.97"   Gusts: 29mph
Location:  43.02°N, 78.89°W
Report Text: KIAG 222353Z 23016G25KT 10SM OVC017 08/04 A2997 RMK AO2 PK WND 24026/2310 SLP160 60000 T00780044 10078 20028 58001 $
Loading
Personal Weather Stations






























Interactive Weather Map New forecast layout! Learn more

10-Day Weather Forecast

Advertisements
Track Severe Weather on mobile